Time;durP1;ratioP1;P1;durP2;ratioP2;P2;SDS_P1;SDS_P2;PMS_P1;PMS_P2;Temp;Humidity;BMP_temperature;BMP_pressure;BME280_temperature;BME280_humidity;BME280_pressure;Samples;Min_cycle;Max_cycle;Signal;HPM_P1;HPM_P2
2022/08/11 00:01:45;;;;;;;3.83;1.90;;;24.40;33.10;;;;;;4979816;28;20047;-46
2022/08/11 00:04:14;;;;;;;1.80;1.58;;;24.40;33.30;;;;;;4985159;28;20504;-48
2022/08/11 00:06:46;;;;;;;4.45;1.85;;;24.30;33.40;;;;;;4985126;28;20070;-46
2022/08/11 00:09:19;;;;;;;4.93;2.10;;;24.30;33.60;;;;;;4985780;28;20240;-44
2022/08/11 00:11:50;;;;;;;2.60;1.77;;;24.30;33.90;;;;;;4982564;28;20058;-47
2022/08/11 00:14:20;;;;;;;4.13;1.95;;;24.30;33.80;;;;;;4983002;28;20058;-46
2022/08/11 00:16:55;;;;;;;3.63;1.70;;;24.30;33.60;;;;;;4985089;28;20403;-46
2022/08/11 00:19:27;;;;;;;3.05;1.80;;;24.20;33.60;;;;;;4985823;28;20558;-46
2022/08/11 00:21:56;;;;;;;2.30;1.70;;;24.10;33.50;;;;;;4978660;28;20061;-43
2022/08/11 00:24:24;;;;;;;4.57;1.92;;;24.10;33.80;;;;;;4984361;28;20525;-49
2022/08/11 00:26:53;;;;;;;3.63;2.60;;;24.00;34.00;;;;;;4983762;28;20062;-46
2022/08/11 00:29:21;;;;;;;4.10;2.20;;;24.00;34.30;;;;;;4983910;28;20062;-45
2022/08/11 00:31:50;;;;;;;5.22;2.15;;;24.00;34.40;;;;;;4980509;28;20062;-47
2022/08/11 00:34:22;;;;;;;1.90;1.70;;;23.90;34.40;;;;;;4983923;28;20077;-48
2022/08/11 00:36:52;;;;;;;3.80;2.08;;;23.90;34.40;;;;;;4983708;28;20513;-45
2022/08/11 00:39:23;;;;;;;2.20;1.83;;;23.90;34.50;;;;;;4985209;28;20054;-49
2022/08/11 00:42:06;;;;;;;3.47;2.22;;;23.80;34.70;;;;;;4981061;28;20065;-47
2022/08/11 00:44:44;;;;;;;2.20;1.75;;;23.80;34.90;;;;;;4982246;28;20050;-45
2022/08/11 00:47:26;;;;;;;3.25;1.85;;;23.80;34.70;;;;;;4983917;28;20057;-44
2022/08/11 00:50:02;;;;;;;7.65;2.40;;;23.70;34.70;;;;;;4982529;28;20077;-45
2022/08/11 00:52:50;;;;;;;3.22;2.03;;;23.60;34.80;;;;;;4985375;28;20062;-45
2022/08/11 00:56:09;;;;;;;2.50;2.05;;;23.60;34.60;;;;;;4983959;28;20409;-46
2022/08/11 00:59:16;;;;;;;4.93;2.20;;;23.50;34.70;;;;;;4982395;28;20422;-45
2022/08/11 01:01:56;;;;;;;4.28;1.88;;;23.50;35.00;;;;;;4977254;28;20051;-48
2022/08/11 01:04:56;;;;;;;3.75;2.05;;;23.50;34.90;;;;;;4982608;28;20058;-45
2022/08/11 01:07:52;;;;;;;3.47;1.90;;;23.40;35.10;;;;;;4985013;28;20059;-47
2022/08/11 01:10:44;;;;;;;3.65;2.13;;;23.40;34.90;;;;;;4979758;28;20078;-45
2022/08/11 01:13:29;;;;;;;3.58;2.15;;;23.30;34.80;;;;;;4979649;28;20418;-48
2022/08/11 01:16:26;;;;;;;2.80;1.80;;;23.30;35.00;;;;;;4981175;28;20043;-46
2022/08/11 01:19:24;;;;;;;2.50;1.90;;;23.30;34.90;;;;;;4983834;28;20050;-48
2022/08/11 01:22:19;;;;;;;3.45;2.08;;;23.30;35.30;;;;;;4980352;28;20058;-44
2022/08/11 01:25:11;;;;;;;2.92;2.20;;;23.30;35.40;;;;;;4948736;28;20077;-46
2022/08/11 01:28:10;;;;;;;5.82;2.00;;;23.20;35.20;;;;;;4982882;28;20966;-46
2022/08/11 01:31:26;;;;;;;2.20;2.00;;;23.20;35.20;;;;;;4979756;28;20078;-43
2022/08/11 01:34:39;;;;;;;5.10;1.63;;;23.10;35.20;;;;;;4982769;28;20073;-46
2022/08/11 01:37:47;;;;;;;3.70;2.30;;;23.10;35.20;;;;;;4983463;28;20050;-43
2022/08/11 01:40:36;;;;;;;3.40;2.40;;;23.10;35.40;;;;;;4975928;28;20054;-46
2022/08/11 01:46:46;;;;;;;3.33;2.10;;;23.00;35.60;;;;;;4955666;28;20057;-45
2022/08/11 01:49:23;;;;;;;7.88;2.00;;;22.90;35.40;;;;;;4983854;28;20054;-47
2022/08/11 01:52:04;;;;;;;2.22;1.83;;;22.90;35.50;;;;;;4977853;28;20069;-43
2022/08/11 01:54:40;;;;;;;4.18;2.20;;;22.80;35.60;;;;;;4983686;28;20054;-47
2022/08/11 01:57:21;;;;;;;4.00;2.20;;;22.80;35.90;;;;;;4983218;28;20490;-44
2022/08/11 01:59:53;;;;;;;2.88;1.90;;;22.80;35.80;;;;;;4979965;28;20057;-47
2022/08/11 02:02:46;;;;;;;3.22;2.15;;;22.80;35.70;;;;;;4981464;28;20061;-47
2022/08/11 02:05:26;;;;;;;4.50;2.00;;;22.70;35.70;;;;;;4983614;28;20054;-45
2022/08/11 02:08:05;;;;;;;4.93;2.13;;;22.70;35.60;;;;;;4983659;28;20069;-45
2022/08/11 02:13:37;;;;;;;2.72;2.05;;;22.70;35.80;;;;;;4972973;28;20069;-46
2022/08/11 02:16:13;;;;;;;3.88;2.42;;;22.70;35.90;;;;;;4981385;28;20050;-47
2022/08/11 02:24:33;;;;;;;5.13;2.45;;;22.60;36.10;;;;;;4988590;28;20061;-45
2022/08/11 02:27:07;;;;;;;3.35;2.10;;;22.60;36.10;;;;;;4982167;28;20045;-45
2022/08/11 02:29:46;;;;;;;5.88;2.05;;;22.60;36.20;;;;;;4977910;28;20422;-49
2022/08/11 02:35:15;;;;;;;2.30;2.10;;;22.60;36.50;;;;;;4983471;28;20537;-48
2022/08/11 02:37:50;;;;;;;3.00;1.98;;;22.50;36.50;;;;;;4983290;28;20058;-50
2022/08/11 02:40:27;;;;;;;4.07;1.92;;;22.50;36.40;;;;;;4979486;28;20050;-49
2022/08/11 02:43:09;;;;;;;3.35;2.28;;;22.50;37.10;;;;;;4979459;28;20426;-45
2022/08/11 02:45:47;;;;;;;4.03;2.17;;;22.50;36.90;;;;;;4980188;28;20065;-43
2022/08/11 02:51:43;;;;;;;2.67;2.10;;;22.50;36.60;;;;;;4984121;28;20057;-46
2022/08/11 02:54:17;;;;;;;6.60;2.30;;;22.50;36.60;;;;;;4981272;28;20062;-42
2022/08/11 02:56:51;;;;;;;2.67;2.13;;;22.40;36.50;;;;;;4982658;28;20059;-47
2022/08/11 02:59:52;;;;;;;;;;;22.40;36.60;;;;;;4982409;28;20061;-46
2022/08/11 03:02:40;;;;;;;2.33;1.80;;;22.40;36.40;;;;;;4980461;28;19921;-47
2022/08/11 03:05:19;;;;;;;2.70;2.17;;;22.40;36.80;;;;;;4981938;28;20051;-45
2022/08/11 03:08:02;;;;;;;3.55;2.10;;;22.40;36.80;;;;;;4983066;28;20054;-50
2022/08/11 03:10:41;;;;;;;5.18;2.05;;;22.30;36.90;;;;;;4972580;28;20050;-44
2022/08/11 03:19:11;;;;;;;2.90;2.40;;;22.20;37.00;;;;;;4982714;28;20410;-46
2022/08/11 03:21:46;;;;;;;3.03;2.10;;;22.20;37.20;;;;;;4976478;28;20054;-49
2022/08/11 03:24:22;;;;;;;5.63;2.15;;;22.20;37.40;;;;;;4982090;28;20062;-46
2022/08/11 03:27:01;;;;;;;3.55;2.20;;;22.10;37.30;;;;;;4980929;28;20482;-45
2022/08/11 03:29:34;;;;;;;3.40;2.03;;;22.10;37.50;;;;;;4973912;28;20054;-45
2022/08/11 03:32:11;;;;;;;4.15;2.80;;;22.10;37.60;;;;;;4979466;28;20058;-44
2022/08/11 03:34:40;;;;;;;4.35;2.55;;;22.10;37.80;;;;;;4977801;28;20426;-44
2022/08/11 03:43:19;;;;;;;4.65;2.70;;;22.00;37.40;;;;;;4973527;28;20046;-45
2022/08/11 03:45:58;;;;;;;3.92;2.33;;;22.00;37.50;;;;;;4981100;28;20046;-45
2022/08/11 03:48:39;;;;;;;3.53;2.40;;;21.90;37.60;;;;;;4978031;28;20065;-45
2022/08/11 03:51:14;;;;;;;4.50;2.35;;;21.90;37.70;;;;;;4979875;28;20065;-48
2022/08/11 03:53:56;;;;;;;3.13;2.50;;;21.90;38.00;;;;;;4981537;28;20395;-47
2022/08/11 03:56:53;;;;;;;7.32;2.42;;;21.80;38.10;;;;;;4979608;28;20046;-46
2022/08/11 04:00:05;;;;;;;5.15;2.72;;;21.80;38.00;;;;;;4981276;28;20418;-44
2022/08/11 04:03:08;;;;;;;4.63;2.28;;;21.80;38.20;;;;;;4982777;28;20076;-48
2022/08/11 04:06:06;;;;;;;4.68;2.22;;;21.70;38.10;;;;;;4982001;28;20054;-49
2022/08/11 04:09:16;;;;;;;22.17;11.30;;;21.70;38.10;;;;;;4985642;28;20057;-45
2022/08/11 04:12:14;;;;;;;9.18;5.93;;;21.60;38.00;;;;;;4983427;28;20058;-43
2022/08/11 04:18:23;;;;;;;3.50;2.40;;;21.60;38.30;;;;;;4985321;28;20057;-44
2022/08/11 04:21:15;;;;;;;3.95;2.55;;;21.60;38.50;;;;;;4982326;28;20053;-44
2022/08/11 04:24:08;;;;;;;5.60;2.15;;;21.60;38.50;;;;;;4981925;28;20059;-47
2022/08/11 04:27:06;;;;;;;2.58;2.25;;;21.50;38.60;;;;;;4982303;28;20054;-44
2022/08/11 04:29:57;;;;;;;4.05;2.33;;;21.50;38.50;;;;;;4978011;28;20054;-44
2022/08/11 04:32:48;;;;;;;3.90;2.28;;;21.40;38.40;;;;;;4977867;28;20054;-46
2022/08/11 04:35:30;;;;;;;3.80;2.78;;;21.40;38.30;;;;;;4982895;28;20058;-50
2022/08/11 04:38:45;;;;;;;11.82;7.07;;;21.40;38.50;;;;;;4982194;28;20426;-46
2022/08/11 04:45:10;;;;;;;6.27;3.47;;;21.30;39.00;;;;;;5016058;28;20401;-45
2022/08/11 05:03:24;;;;;;;4.80;2.80;;;21.30;39.60;;;;;;5020280;28;20068;-45
2022/08/11 05:06:21;;;;;;;17.13;9.65;;;21.20;39.80;;;;;;5023650;28;20057;-44
2022/08/11 05:09:12;;;;;;;15.00;6.55;;;21.30;40.00;;;;;;5015350;28;20404;-44
2022/08/11 05:12:02;;;;;;;6.45;3.50;;;21.30;40.10;;;;;;5022149;28;20050;-44
2022/08/11 05:37:12;;;;;;;4.10;2.53;;;21.30;41.20;;;;;;5022434;28;20060;-48
2022/08/11 05:56:44;;;;;;;4.68;2.90;;;21.50;42.10;;;;;;5025601;28;20524;-46
2022/08/11 05:59:18;;;;;;;7.95;2.78;;;21.50;42.00;;;;;;5017097;28;20052;-46
2022/08/11 06:01:47;;;;;;;6.40;2.78;;;21.50;42.20;;;;;;5011596;28;20100;-46
2022/08/11 06:04:20;;;;;;;8.43;2.65;;;21.60;42.10;;;;;;5016211;28;20470;-48
2022/08/11 06:06:54;;;;;;;9.57;2.20;;;21.60;42.90;;;;;;5020642;28;20441;-49
2022/08/11 06:09:25;;;;;;;3.42;2.50;;;21.60;42.50;;;;;;5020442;28;20048;-45
2022/08/11 06:11:53;;;;;;;3.72;2.55;;;21.70;42.10;;;;;;5019608;28;20057;-43
2022/08/11 06:14:24;;;;;;;2.58;2.33;;;21.70;42.40;;;;;;5018608;28;20065;-47
2022/08/11 06:16:57;;;;;;;3.28;2.45;;;21.80;42.50;;;;;;5020799;28;20053;-49
2022/08/11 06:19:34;;;;;;;7.40;2.80;;;21.90;42.80;;;;;;5021225;28;20485;-47
2022/08/11 06:22:03;;;;;;;7.45;2.50;;;21.90;42.80;;;;;;5018774;28;20049;-44
2022/08/11 06:24:33;;;;;;;5.75;2.47;;;22.00;42.50;;;;;;5020948;28;20053;-46
2022/08/11 06:27:02;;;;;;;5.75;2.42;;;22.10;42.30;;;;;;5020570;28;20512;-48
2022/08/11 06:29:31;;;;;;;7.30;2.40;;;22.10;42.20;;;;;;5019250;28;20061;-49
2022/08/11 06:32:03;;;;;;;3.72;2.05;;;22.20;42.30;;;;;;5020247;28;20057;-48
2022/08/11 06:34:40;;;;;;;3.35;2.25;;;22.20;41.70;;;;;;5021321;28;20046;-45
2022/08/11 06:37:20;;;;;;;5.80;2.70;;;22.30;41.80;;;;;;5020759;28;20084;-44
2022/08/11 06:39:58;;;;;;;3.53;2.42;;;22.30;41.90;;;;;;5021678;28;20065;-44
2022/08/11 06:42:48;;;;;;;3.05;2.28;;;22.40;41.90;;;;;;5019328;28;20053;-47
2022/08/11 06:45:30;;;;;;;5.13;2.40;;;22.50;42.00;;;;;;5017112;28;20049;-47
2022/08/11 06:48:01;;;;;;;3.20;2.17;;;22.60;41.80;;;;;;5019505;28;20060;-44
2022/08/11 06:53:17;;;;;;;4.65;2.50;;;22.70;41.80;;;;;;5021768;28;20056;-45
2022/08/11 07:01:34;;;;;;;4.07;2.28;;;22.90;42.00;;;;;;5024263;28;20495;-47
2022/08/11 07:04:07;;;;;;;4.53;2.70;;;22.90;41.90;;;;;;5020982;28;20061;-48
2022/08/11 07:15:40;;;;;;;2.95;2.17;;;23.00;41.70;;;;;;5020040;28;20069;-46
2022/08/11 07:15:44;;;;;;;6.00;2.92;;;23.30;41.40;;;;;;5025412;28;20417;-47
2022/08/11 07:29:38;;;;;;;5.07;2.40;;;23.70;40.50;;;;;;5022708;28;20056;-48
2022/08/11 07:32:14;;;;;;;4.18;2.03;;;23.80;40.50;;;;;;5019849;28;20057;-44
2022/08/11 07:34:48;;;;;;;6.47;3.03;;;23.80;39.90;;;;;;5019590;28;20075;-48
2022/08/11 07:37:19;;;;;;;5.80;3.22;;;23.90;40.10;;;;;;5022806;28;20053;-48
2022/08/11 07:39:48;;;;;;;7.25;2.70;;;24.00;39.90;;;;;;5022505;28;20053;-45
2022/08/11 07:42:21;;;;;;;6.05;2.53;;;24.10;39.50;;;;;;5024216;28;20058;-48
2022/08/11 07:53:09;;;;;;;5.97;2.58;;;24.50;39.00;;;;;;5029120;28;20076;-48
2022/08/11 07:55:37;;;;;;;3.20;2.15;;;24.60;38.80;;;;;;5016527;28;20052;-47
2022/08/11 08:17:56;;;;;;;4.60;2.33;;;25.40;38.10;;;;;;5029972;28;20072;-49
2022/08/11 08:20:27;;;;;;;3.75;2.05;;;25.40;37.60;;;;;;5020072;28;20064;-45
2022/08/11 08:22:59;;;;;;;2.72;2.03;;;25.50;37.20;;;;;;5023753;28;20416;-45
2022/08/11 08:25:28;;;;;;;7.18;2.28;;;25.60;37.00;;;;;;5023517;28;20485;-44
2022/08/11 08:27:57;;;;;;;6.05;2.28;;;25.70;36.90;;;;;;5020866;28;20050;-48
2022/08/11 08:33:13;;;;;;;4.20;2.35;;;25.80;36.30;;;;;;5023799;28;20060;-48
2022/08/11 08:35:43;;;;;;;5.85;2.00;;;25.90;36.10;;;;;;5022929;28;20058;-49
2022/08/11 08:38:12;;;;;;;2.45;1.90;;;26.00;36.10;;;;;;5017724;28;20050;-46
2022/08/11 08:40:42;;;;;;;2.30;1.80;;;26.10;36.30;;;;;;5015270;28;20412;-46
2022/08/11 08:43:13;;;;;;;6.53;2.30;;;26.20;35.80;;;;;;5014553;28;20058;-45
2022/08/11 08:45:42;;;;;;;4.85;2.75;;;26.30;35.50;;;;;;5021484;28;20056;-48
2022/08/11 08:48:14;;;;;;;5.22;2.30;;;26.40;35.20;;;;;;5021027;28;20053;-45
2022/08/11 08:53:38;;;;;;;4.63;2.20;;;26.50;34.50;;;;;;5022451;28;20064;-46
2022/08/11 08:56:07;;;;;;;;;;;26.60;34.60;;;;;;5020170;28;20049;-47
2022/08/11 08:58:36;;;;;;;2.60;1.80;;;26.70;34.90;;;;;;5019072;28;19921;-48
2022/08/11 09:01:04;;;;;;;3.92;2.17;;;26.80;34.30;;;;;;5017968;28;20500;-46
2022/08/11 09:03:35;;;;;;;4.22;1.75;;;26.80;34.10;;;;;;5019843;28;20520;-47
2022/08/11 09:06:03;;;;;;;5.25;2.08;;;26.90;33.90;;;;;;5020707;28;20065;-44
2022/08/11 09:08:34;;;;;;;3.15;2.00;;;27.00;33.80;;;;;;5017321;28;20050;-46
2022/08/11 09:13:48;;;;;;;4.47;1.95;;;27.10;33.50;;;;;;5026294;28;20536;-44
2022/08/11 09:16:16;;;;;;;2.80;1.88;;;27.20;33.90;;;;;;5021923;28;20057;-45
2022/08/11 09:18:44;;;;;;;6.47;2.30;;;27.30;33.40;;;;;;5023915;28;20424;-48
2022/08/11 09:21:13;;;;;;;4.82;2.20;;;27.40;33.80;;;;;;5020041;28;20058;-47
2022/08/11 09:29:13;;;;;;;4.70;1.92;;;27.60;32.60;;;;;;5024940;28;20045;-45
2022/08/11 09:31:42;;;;;;;3.65;1.98;;;27.60;32.80;;;;;;5016999;28;20053;-44
2022/08/11 09:34:10;;;;;;;3.20;1.63;;;27.70;32.70;;;;;;5022593;28;20068;-48
2022/08/11 09:42:13;;;;;;;6.75;1.92;;;27.90;32.60;;;;;;5028449;28;20060;-46
2022/08/11 09:44:47;;;;;;;3.40;2.10;;;28.00;32.40;;;;;;5014778;28;20049;-46
2022/08/11 09:47:19;;;;;;;3.88;2.33;;;28.00;32.10;;;;;;5020376;28;20125;-45
2022/08/11 09:49:50;;;;;;;5.28;1.77;;;28.10;31.90;;;;;;5020956;28;20057;-48
2022/08/11 09:52:18;;;;;;;3.08;1.60;;;28.20;31.90;;;;;;5021483;28;20064;-46
2022/08/11 09:54:49;;;;;;;3.88;1.77;;;28.20;31.80;;;;;;5019489;28;20054;-47
2022/08/11 10:00:07;;;;;;;2.85;1.65;;;28.40;30.90;;;;;;5026279;28;20127;-44
2022/08/11 10:02:40;;;;;;;2.42;1.60;;;28.40;31.00;;;;;;5018077;28;20045;-44
2022/08/11 10:07:54;;;;;;;5.55;2.28;;;28.50;30.80;;;;;;5026377;28;20056;-45
2022/08/11 10:10:23;;;;;;;6.30;1.90;;;28.50;30.70;;;;;;5019123;28;20056;-45
2022/08/11 10:12:56;;;;;;;2.55;1.55;;;28.50;30.60;;;;;;5020239;28;20046;-47
2022/08/11 10:15:32;;;;;;;4.43;2.15;;;28.60;30.50;;;;;;5021000;28;20065;-49
2022/08/11 10:20:53;;;;;;;9.52;2.90;;;28.60;30.00;;;;;;5023720;28;20065;-50
2022/08/11 10:28:53;;;;;;;6.05;2.75;;;28.70;29.60;;;;;;5025281;28;20060;-48
2022/08/11 10:34:08;;;;;;;4.22;2.30;;;28.70;29.60;;;;;;5021433;28;20064;-44
2022/08/11 10:36:43;;;;;;;4.18;1.80;;;28.70;29.50;;;;;;5023067;28;20057;-49
2022/08/11 10:39:15;;;;;;;3.53;2.20;;;28.70;29.50;;;;;;5021748;28;20393;-48
2022/08/11 10:44:36;;;;;;;2.38;1.73;;;28.80;29.40;;;;;;5025990;28;20060;-46
2022/08/11 10:51:11;;;;;;;5.68;1.73;;;28.90;29.50;;;;;;5019671;28;20044;-50
2022/08/11 11:00:59;;;;;;;8.35;2.30;;;29.10;29.40;;;;;;5015369;28;20064;-44
2022/08/11 11:03:29;;;;;;;2.63;1.55;;;29.10;29.20;;;;;;5021909;28;20046;-47
2022/08/11 11:06:04;;;;;;;3.25;1.88;;;29.20;29.10;;;;;;5022683;28;20053;-48
2022/08/11 11:11:20;;;;;;;7.35;2.03;;;29.30;29.40;;;;;;5023701;28;20056;-46
2022/08/11 11:19:24;;;;;;;3.45;2.30;;;29.40;28.90;;;;;;5026952;28;20057;-47
2022/08/11 11:22:36;;;;;;;2.28;1.80;;;29.50;29.50;;;;;;5023348;28;20053;-47
2022/08/11 11:24:52;;;;;;;7.82;2.15;;;29.50;28.70;;;;;;5021717;28;20068;-47
2022/08/11 11:27:27;;;;;;;3.17;1.85;;;29.50;28.20;;;;;;5020576;28;20057;-50
2022/08/11 11:30:04;;;;;;;3.72;2.50;;;29.60;28.60;;;;;;5018728;28;20049;-49
2022/08/11 11:32:41;;;;;;;3.78;2.10;;;29.60;28.60;;;;;;5021460;28;20504;-47
2022/08/11 11:35:22;;;;;;;5.10;1.40;;;29.60;28.40;;;;;;5022014;28;20069;-46
2022/08/11 11:37:50;;;;;;;4.50;2.13;;;29.70;28.40;;;;;;5017355;28;20049;-50
2022/08/11 11:40:21;;;;;;;4.60;1.90;;;29.70;28.60;;;;;;5017614;28;20060;-45
2022/08/11 11:42:50;;;;;;;2.70;2.22;;;29.70;28.40;;;;;;5022086;28;20412;-46
2022/08/11 11:45:20;;;;;;;3.95;2.05;;;29.70;28.20;;;;;;5021720;28;20053;-49
2022/08/11 11:47:51;;;;;;;2.88;1.88;;;29.80;27.90;;;;;;5022370;28;20053;-49
2022/08/11 11:50:23;;;;;;;2.65;2.00;;;29.80;28.20;;;;;;5022465;28;20053;-45
2022/08/11 11:52:54;;;;;;;3.70;2.15;;;29.90;28.30;;;;;;5025343;28;20061;-46
2022/08/11 11:55:23;;;;;;;2.97;1.80;;;29.90;28.20;;;;;;5024789;28;20061;-50
2022/08/11 12:03:26;;;;;;;3.53;2.00;;;30.00;27.80;;;;;;5021167;28;20512;-46
2022/08/11 12:05:54;;;;;;;5.25;2.05;;;30.00;27.70;;;;;;5024017;28;20057;-46
2022/08/11 12:08:23;;;;;;;3.60;2.03;;;30.00;27.60;;;;;;5019595;28;20060;-50
2022/08/11 12:13:39;;;;;;;3.03;2.20;;;30.10;27.50;;;;;;5021925;28;20053;-46
2022/08/11 12:13:41;;;;;;;5.28;2.50;;;30.10;27.70;;;;;;5023480;28;21025;-47
2022/08/11 12:16:10;;;;;;;4.47;1.85;;;30.10;27.50;;;;;;5020955;28;20049;-44
2022/08/11 12:18:39;;;;;;;2.88;1.90;;;30.10;27.60;;;;;;5021598;28;20057;-47
2022/08/11 12:21:08;;;;;;;4.55;2.00;;;30.10;27.60;;;;;;5020132;28;20504;-45
2022/08/11 12:29:26;;;;;;;3.92;2.15;;;30.20;27.50;;;;;;5016567;28;20060;-49
2022/08/11 12:31:57;;;;;;;3.50;1.42;;;30.20;27.40;;;;;;5021860;28;20053;-52
2022/08/11 12:34:27;;;;;;;3.08;2.10;;;30.30;27.30;;;;;;5023750;28;20060;-46
2022/08/11 12:36:57;;;;;;;5.68;2.10;;;30.20;27.30;;;;;;5024251;28;20057;-45
2022/08/11 12:53:23;;;;;;;4.60;2.25;;;30.40;27.10;;;;;;5030402;28;20055;-48
2022/08/11 12:58:41;;;;;;;4.05;2.20;;;30.40;27.00;;;;;;5027196;28;20056;-50
2022/08/11 13:06:42;;;;;;;3.22;1.90;;;30.40;27.10;;;;;;5028359;28;20061;-43
2022/08/11 13:09:11;;;;;;;5.20;2.00;;;30.50;26.90;;;;;;5020453;28;20045;-50
2022/08/11 13:14:26;;;;;;;6.55;2.20;;;30.50;27.10;;;;;;5027659;28;20064;-47
2022/08/11 13:19:42;;;;;;;4.47;1.83;;;30.60;26.70;;;;;;5026222;28;20052;-48
2022/08/11 13:22:10;;;;;;;7.75;2.00;;;30.70;26.60;;;;;;5023065;28;20057;-48
2022/08/11 13:24:39;;;;;;;3.80;1.80;;;30.70;26.60;;;;;;5022080;28;20069;-43
2022/08/11 13:27:07;;;;;;;4.13;1.95;;;30.70;26.50;;;;;;5020148;28;20053;-49
2022/08/11 13:29:35;;;;;;;2.72;2.03;;;30.70;26.50;;;;;;5019620;28;20057;-50
2022/08/11 13:32:03;;;;;;;4.43;2.25;;;30.70;26.50;;;;;;5020364;28;20397;-46
2022/08/11 13:34:31;;;;;;;4.00;1.92;;;30.70;26.40;;;;;;5020076;28;20087;-46
2022/08/11 13:37:03;;;;;;;5.13;2.28;;;30.70;26.40;;;;;;5022616;28;20049;-47
2022/08/11 13:39:33;;;;;;;2.40;1.70;;;30.70;26.30;;;;;;5019195;28;20049;-49
2022/08/11 13:42:01;;;;;;;3.42;1.90;;;30.70;26.30;;;;;;5018160;28;20076;-48
2022/08/11 13:44:31;;;;;;;4.57;2.03;;;30.80;26.30;;;;;;5021460;28;20065;-44
2022/08/11 13:47:01;;;;;;;4.20;1.65;;;30.80;26.70;;;;;;5018540;28;20068;-45
2022/08/11 13:49:30;;;;;;;2.35;1.80;;;30.80;26.40;;;;;;5022526;28;20057;-45
2022/08/11 13:51:58;;;;;;;4.22;1.83;;;30.80;26.20;;;;;;5018550;28;20056;-46
2022/08/11 13:54:30;;;;;;;5.22;1.95;;;30.80;26.20;;;;;;5022040;28;20045;-49
2022/08/11 13:57:02;;;;;;;2.60;2.00;;;30.80;25.90;;;;;;5020055;28;20060;-49
2022/08/11 13:59:30;;;;;;;4.15;2.15;;;30.90;25.90;;;;;;5019073;28;20057;-48
2022/08/11 14:02:02;;;;;;;2.20;1.70;;;31.00;25.90;;;;;;5018710;28;20516;-48
2022/08/11 14:04:34;;;;;;;3.88;1.98;;;30.90;25.60;;;;;;5021395;28;20520;-48
2022/08/11 14:07:08;;;;;;;3.70;1.80;;;31.00;25.60;;;;;;5019629;28;20416;-51
2022/08/11 14:09:42;;;;;;;2.42;1.67;;;31.00;25.60;;;;;;5019217;28;20446;-50
2022/08/11 14:15:02;;;;;;;2.13;1.92;;;31.00;25.50;;;;;;5026750;28;20072;-46
2022/08/11 14:17:33;;;;;;;5.13;2.15;;;31.00;25.20;;;;;;5014098;28;20053;-53
2022/08/11 14:20:04;;;;;;;4.95;2.15;;;31.00;24.90;;;;;;5014576;28;20080;-50
2022/08/11 14:22:32;;;;;;;4.80;2.15;;;31.00;24.00;;;;;;5015736;28;20064;-47
2022/08/11 14:25:01;;;;;;;3.20;1.90;;;31.00;24.70;;;;;;5020028;28;20049;-47
2022/08/11 14:27:30;;;;;;;3.20;1.85;;;31.10;24.80;;;;;;5020570;28;20061;-48
2022/08/11 14:29:58;;;;;;;3.65;1.95;;;31.10;24.90;;;;;;5018860;28;20053;-48
2022/08/11 14:32:26;;;;;;;3.22;1.80;;;31.20;25.00;;;;;;5021231;28;20413;-46
2022/08/11 14:34:53;;;;;;;2.65;1.88;;;31.20;25.00;;;;;;5017632;28;20049;-50
2022/08/11 14:37:24;;;;;;;3.08;1.95;;;31.30;25.00;;;;;;5022482;28;20057;-47
2022/08/11 14:39:54;;;;;;;5.93;2.03;;;31.30;25.10;;;;;;5020622;28;20072;-49
2022/08/11 14:48:08;;;;;;;3.75;1.95;;;31.40;24.90;;;;;;5011943;28;20061;-50
2022/08/11 14:50:36;;;;;;;5.85;2.00;;;31.50;25.10;;;;;;5017302;28;20053;-46
2022/08/11 14:53:06;;;;;;;7.20;2.10;;;31.50;24.90;;;;;;5019168;28;20064;-49
2022/08/11 14:58:28;;;;;;;6.40;2.45;;;31.50;24.80;;;;;;4999207;28;20064;-50
2022/08/11 15:00:57;;;;;;;3.45;2.10;;;31.50;24.70;;;;;;5016237;28;20060;-56
2022/08/11 15:03:26;;;;;;;3.08;1.90;;;31.50;24.00;;;;;;5022423;28;20053;-51
2022/08/11 15:05:56;;;;;;;2.65;1.98;;;31.50;24.00;;;;;;5021911;28;20050;-45
2022/08/11 15:08:53;;;;;;;2.50;1.80;;;31.50;24.40;;;;;;5021020;28;20050;-49
2022/08/11 15:13:59;;;;;;;6.47;1.80;;;31.60;24.40;;;;;;5019647;28;20041;-50
2022/08/11 15:19:14;;;;;;;1.75;1.60;;;31.60;24.50;;;;;;5026815;28;20505;-47
2022/08/11 15:24:26;;;;;;;3.03;1.92;;;31.70;24.50;;;;;;5026710;28;20052;-52
2022/08/11 15:38:02;;;;;;;2.35;1.70;;;31.70;24.40;;;;;;5027799;28;20072;-49
2022/08/11 15:46:16;;;;;;;2.92;1.73;;;31.70;24.40;;;;;;5026777;28;20064;-46
2022/08/11 15:48:47;;;;;;;4.25;1.67;;;31.70;24.40;;;;;;5020674;28;20053;-47
2022/08/11 15:51:21;;;;;;;3.20;1.85;;;31.60;24.20;;;;;;5018287;28;20054;-46
2022/08/11 15:53:52;;;;;;;3.60;2.10;;;31.70;24.70;;;;;;5020946;28;20057;-46
2022/08/11 15:56:22;;;;;;;2.83;1.83;;;31.60;24.30;;;;;;5017070;28;20049;-49
2022/08/11 16:04:29;;;;;;;1.90;1.77;;;31.70;24.30;;;;;;5025203;28;20512;-48
2022/08/11 16:07:00;;;;;;;3.00;2.00;;;31.70;24.10;;;;;;5021053;28;20049;-46
2022/08/11 16:09:35;;;;;;;3.17;1.67;;;31.70;24.40;;;;;;5023982;28;20514;-48
2022/08/11 16:12:06;;;;;;;2.65;2.10;;;31.70;24.80;;;;;;5022657;28;20511;-52
2022/08/11 16:17:26;;;;;;;3.50;1.88;;;31.70;24.20;;;;;;5029818;28;20145;-50
2022/08/11 16:19:56;;;;;;;3.40;1.88;;;31.60;24.20;;;;;;5015519;28;20062;-46
2022/08/11 16:22:33;;;;;;;5.00;2.17;;;31.60;24.30;;;;;;5019136;28;20053;-50
2022/08/11 16:25:02;;;;;;;3.40;2.22;;;31.60;24.20;;;;;;5019634;28;20513;-45
2022/08/11 16:27:32;;;;;;;3.40;1.98;;;31.60;24.20;;;;;;5017587;28;20060;-52
2022/08/11 16:30:01;;;;;;;2.22;1.65;;;31.60;24.00;;;;;;5021161;28;20057;-49
2022/08/11 16:32:31;;;;;;;2.20;1.83;;;31.50;23.90;;;;;;5014943;28;20064;-48
2022/08/11 16:40:33;;;;;;;2.28;1.88;;;31.50;24.20;;;;;;5026658;28;20084;-49
2022/08/11 16:48:37;;;;;;;3.30;1.90;;;31.40;24.30;;;;;;5026252;28;20056;-47
2022/08/11 16:51:06;;;;;;;3.00;2.10;;;31.40;24.20;;;;;;5002986;28;20053;-47
2022/08/11 16:53:34;;;;;;;3.53;1.95;;;31.40;24.20;;;;;;5023820;28;20053;-47
2022/08/11 16:56:03;;;;;;;3.13;1.73;;;31.30;24.30;;;;;;5021466;28;20049;-49
2022/08/11 17:01:21;;;;;;;4.72;2.20;;;31.30;24.30;;;;;;5024466;28;20053;-46
2022/08/11 17:17:58;;;;;;;4.28;1.80;;;31.20;24.40;;;;;;5018888;28;20489;-46
2022/08/11 17:20:28;;;;;;;2.55;2.00;;;31.20;24.50;;;;;;5019316;28;20049;-45
2022/08/11 17:25:54;;;;;;;3.17;1.60;;;31.10;24.50;;;;;;4977534;28;20057;-49
2022/08/11 17:28:23;;;;;;;3.95;1.65;;;31.10;24.50;;;;;;5010053;28;20049;-50
2022/08/11 17:36:24;;;;;;;2.88;1.90;;;31.00;25.20;;;;;;5025355;28;20064;-49
2022/08/11 17:38:52;;;;;;;3.10;2.03;;;31.00;25.10;;;;;;5017784;28;20053;-49
2022/08/11 17:49:39;;;;;;;2.42;1.70;;;31.00;25.70;;;;;;5024190;28;20064;-48
2022/08/11 18:00:25;;;;;;;3.72;1.92;;;30.80;25.90;;;;;;5023689;28;20452;-46
2022/08/11 18:05:44;;;;;;;4.30;2.10;;;30.80;26.50;;;;;;5027138;28;20064;-47
